Time;durP1;ratioP1;P1;durP2;ratioP2;P2;SDS_P1;SDS_P2;PMS_P1;PMS_P2;Temp;Humidity;BMP_temperature;BMP_pressure;BME280_temperature;BME280_humidity;BME280_pressure;Samples;Min_cycle;Max_cycle;Signal;HPM_P1;HPM_P2
2022/05/30 00:00:04;;;;;;;;;;;;;;;28.84;32.55;99899.56;5078947;28;942;-55
2022/05/30 00:02:29;;;;;;;;;;;;;;;28.80;32.46;99908.34;5078471;28;1029;-60
2022/05/30 00:04:54;;;;;;;;;;;;;;;28.85;32.42;99906.66;5078857;28;817;-58
2022/05/30 00:07:20;;;;;;;;;;;;;;;28.83;32.27;99914.16;5078864;28;792;-59
2022/05/30 00:09:47;;;;;;;;;;;;;;;28.91;32.07;99915.78;5079514;28;873;-56
2022/05/30 00:12:12;;;;;;;;;;;;;;;28.85;32.25;99919.34;5078707;28;1470;-58
2022/05/30 00:14:37;;;;;;;;;;;;;;;28.83;32.29;99908.75;5078919;28;1967;-60
2022/05/30 00:17:03;;;;;;;;;;;;;;;28.78;32.22;99913.97;5077821;28;868;-61
2022/05/30 00:19:28;;;;;;;;;;;;;;;28.84;32.15;99906.88;5078238;28;798;-60
2022/05/30 00:21:54;;;;;;;;;;;;;;;28.82;31.97;99901.69;5078997;28;725;-58
2022/05/30 00:24:19;;;;;;;;;;;;;;;28.79;32.36;99910.22;5079349;28;753;-59
2022/05/30 00:26:45;;;;;;;;;;;;;;;28.82;31.98;99900.84;5078926;28;1216;-56
2022/05/30 00:29:10;;;;;;;;;;;;;;;28.82;32.15;99904.38;5078530;28;800;-60
2022/05/30 00:31:35;;;;;;;;;;;;;;;28.77;32.01;99897.94;5078308;28;892;-59
2022/05/30 00:34:00;;;;;;;;;;;;;;;28.85;32.27;99905.81;5078434;28;1906;-60
2022/05/30 00:36:26;;;;;;;;;;;;;;;28.73;32.10;99906.50;5078721;28;726;-61
2022/05/30 00:38:51;;;;;;;;;;;;;;;28.79;31.93;99903.97;5078270;28;845;-61
2022/05/30 00:41:16;;;;;;;;;;;;;;;28.84;32.13;99886.03;5078138;28;861;-59
2022/05/30 00:43:44;;;;;;;;;;;;;;;28.86;32.15;99880.44;5078801;28;738;-59
2022/05/30 00:46:12;;;;;;;;;;;;;;;28.83;31.84;99881.66;5078145;28;742;-59
2022/05/30 00:48:58;;;;;;;;;;;;;;;28.79;31.86;99872.34;5078212;28;1474;-59
2022/05/30 00:51:43;;;;;;;;;;;;;;;28.73;31.73;99879.44;5077456;28;1116;-60
2022/05/30 00:54:10;;;;;;;;;;;;;;;28.77;31.99;99870.88;5077065;28;1968;-62
2022/05/30 00:56:43;;;;;;;;;;;;;;;28.79;31.85;99868.78;5053821;28;821;-58
2022/05/30 00:59:09;;;;;;;;;;;;;;;28.80;31.86;99873.16;5059803;28;766;-58
2022/05/30 01:01:34;;;;;;;;;;;;;;;28.81;31.62;99864.00;5077531;28;769;-60
2022/05/30 01:06:44;;;;;;;;;;;;;;;28.77;31.65;99877.13;5058064;28;757;-61
2022/05/30 01:09:11;;;;;;;;;;;;;;;28.78;31.62;99870.66;5078527;28;850;-60
2022/05/30 01:11:49;;;;;;;;;;;;;;;28.77;31.64;99870.88;5060107;28;816;-59
2022/05/30 01:14:14;;;;;;;;;;;;;;;28.83;31.69;99875.41;5078353;28;1907;-55
2022/05/30 01:16:39;;;;;;;;;;;;;;;28.83;31.75;99853.75;5077432;28;895;-53
2022/05/30 01:19:05;;;;;;;;;;;;;;;28.85;31.62;99848.97;5077535;28;932;-59
2022/05/30 01:21:39;;;;;;;;;;;;;;;28.78;31.60;99838.19;5059813;28;788;-57
2022/05/30 01:24:31;;;;;;;;;;;;;;;28.77;31.69;99849.22;5060296;28;926;-58
2022/05/30 01:26:59;;;;;;;;;;;;;;;28.78;31.52;99857.13;5072423;28;1110;-60
2022/05/30 01:29:51;;;;;;;;;;;;;;;28.77;31.51;99857.34;5077175;28;954;-58
2022/05/30 01:32:18;;;;;;;;;;;;;;;28.74;31.73;99847.78;5071777;28;1187;-59
2022/05/30 01:34:43;;;;;;;;;;;;;;;28.81;31.33;99861.28;5077665;28;1902;-53
2022/05/30 01:37:08;;;;;;;;;;;;;;;28.84;31.20;99852.72;5077467;28;857;-55
2022/05/30 01:39:33;;;;;;;;;;;;;;;28.84;31.15;99852.72;5077113;28;834;-58
2022/05/30 01:41:59;;;;;;;;;;;;;;;28.86;31.08;99847.94;5077211;28;778;-58
2022/05/30 01:44:24;;;;;;;;;;;;;;;28.85;31.23;99849.81;5076944;28;1228;-54
2022/05/30 01:46:49;;;;;;;;;;;;;;;28.79;31.42;99853.38;5076896;28;956;-58
2022/05/30 01:49:15;;;;;;;;;;;;;;;28.79;31.12;99860.66;5077791;28;739;-57
2022/05/30 01:51:40;;;;;;;;;;;;;;;28.81;30.95;99850.47;5077303;28;705;-57
2022/05/30 01:54:05;;;;;;;;;;;;;;;28.84;31.21;99850.84;5076988;28;1897;-58
2022/05/30 01:56:31;;;;;;;;;;;;;;;28.81;31.10;99851.28;5076819;28;881;-59
2022/05/30 01:58:56;;;;;;;;;;;;;;;28.79;31.24;99852.56;5076130;28;878;-60
2022/05/30 02:01:22;;;;;;;;;;;;;;;28.75;31.35;99854.84;5076348;28;794;-59
2022/05/30 02:03:48;;;;;;;;;;;;;;;28.77;31.17;99860.03;5076897;28;853;-59
2022/05/30 02:06:13;;;;;;;;;;;;;;;28.74;31.37;99866.75;5076893;28;923;-57
2022/05/30 02:08:38;;;;;;;;;;;;;;;28.80;31.24;99870.44;5076426;28;806;-58
2022/05/30 02:11:04;;;;;;;;;;;;;;;28.74;31.37;99872.16;5076323;28;833;-58
2022/05/30 02:13:29;;;;;;;;;;;;;;;28.69;31.38;99878.22;5076617;28;1972;-58
2022/05/30 02:18:38;;;;;;;;;;;;;;;28.70;31.26;99882.56;5077152;28;805;-59
2022/05/30 02:21:03;;;;;;;;;;;;;;;28.79;31.23;99885.88;5076303;28;1387;-60
2022/05/30 02:23:29;;;;;;;;;;;;;;;28.79;30.77;99887.75;5076085;28;861;-59
2022/05/30 02:25:54;;;;;;;;;;;;;;;28.78;30.98;99881.47;5076804;28;1089;-59
2022/05/30 02:28:19;;;;;;;;;;;;;;;28.78;31.08;99892.31;5076478;28;889;-60
2022/05/30 02:30:45;;;;;;;;;;;;;;;28.75;31.33;99883.78;5076405;28;750;-58
2022/05/30 02:38:38;;;;;;;;;;;;;;;28.63;31.27;99895.28;5071747;28;769;-60
2022/05/30 02:41:03;;;;;;;;;;;;;;;28.68;31.07;99887.34;5075525;28;822;-59
2022/05/30 02:43:28;;;;;;;;;;;;;;;28.61;31.24;99889.28;5076075;28;909;-58
2022/05/30 02:45:54;;;;;;;;;;;;;;;28.68;31.04;99890.06;5075663;28;1143;-60
2022/05/30 02:48:19;;;;;;;;;;;;;;;28.73;30.96;99892.97;5076003;28;776;-57
2022/05/30 02:50:47;;;;;;;;;;;;;;;28.74;31.03;99899.22;5076249;28;869;-60
2022/05/30 02:53:12;;;;;;;;;;;;;;;28.77;30.76;99903.34;5076173;28;1901;-61
2022/05/30 02:55:37;;;;;;;;;;;;;;;28.79;30.93;99901.28;5076827;28;883;-60
2022/05/30 02:58:03;;;;;;;;;;;;;;;28.75;30.79;99900.88;5075986;28;921;-60
2022/05/30 03:00:29;;;;;;;;;;;;;;;28.71;30.86;99916.69;5075928;28;750;-61
2022/05/30 03:02:54;;;;;;;;;;;;;;;28.68;30.81;99914.41;5075742;28;837;-60
2022/05/30 03:05:19;;;;;;;;;;;;;;;28.72;30.84;99915.66;5075595;28;1512;-58
2022/05/30 03:07:45;;;;;;;;;;;;;;;28.75;30.70;99913.56;5076076;28;746;-58
2022/05/30 03:10:10;;;;;;;;;;;;;;;28.73;30.75;99911.06;5076321;28;1043;-58
2022/05/30 03:12:35;;;;;;;;;;;;;;;28.71;30.71;99905.88;5075693;28;893;-58
2022/05/30 03:15:00;;;;;;;;;;;;;;;28.70;30.79;99916.91;5075193;28;1957;-60
2022/05/30 03:17:26;;;;;;;;;;;;;;;28.72;30.65;99912.97;5075789;28;793;-58
2022/05/30 03:19:52;;;;;;;;;;;;;;;28.44;32.92;99911.41;5075777;28;806;-54
2022/05/30 03:22:18;;;;;;;;;;;;;;;28.24;34.39;99912.22;5075981;28;777;-49
2022/05/30 03:24:43;;;;;;;;;;;;;;;27.93;37.09;99916.44;5076043;28;797;-52
2022/05/30 03:27:08;;;;;;;;;;;;;;;27.69;38.29;99923.31;5074950;28;1042;-53
2022/05/30 03:29:33;;;;;;;;;;;;;;;27.70;38.67;99927.66;5075735;28;837;-54
2022/05/30 03:31:59;;;;;;;;;;;;;;;27.32;40.95;99921.78;5073251;28;1002;-53
2022/05/30 03:34:24;;;;;;;;;;;;;;;26.94;42.00;99914.16;5075506;28;1926;-48
2022/05/30 03:36:49;;;;;;;;;;;;;;;26.76;42.73;99919.06;5075489;28;891;-46
2022/05/30 03:39:16;;;;;;;;;;;;;;;26.84;42.10;99911.84;5075551;28;1072;-47
2022/05/30 03:41:41;;;;;;;;;;;;;;;26.96;41.91;99926.41;5075206;28;877;-49
2022/05/30 03:44:06;;;;;;;;;;;;;;;27.05;41.80;99916.28;5075814;28;853;-53
2022/05/30 03:46:32;;;;;;;;;;;;;;;27.17;41.46;99927.34;5075353;28;1086;-55
2022/05/30 03:48:57;;;;;;;;;;;;;;;26.67;43.01;99917.56;5075857;28;856;-54
2022/05/30 03:51:22;;;;;;;;;;;;;;;26.34;44.33;99926.31;5075526;28;869;-53
2022/05/30 03:53:49;;;;;;;;;;;;;;;26.50;43.45;99941.34;5078297;28;1993;-57
2022/05/30 03:56:15;;;;;;;;;;;;;;;26.38;44.30;99938.34;5060638;28;1155;-59
2022/05/30 03:58:40;;;;;;;;;;;;;;;26.72;43.41;99946.66;5079361;28;818;-47
2022/05/30 04:01:05;;;;;;;;;;;;;;;27.25;42.06;99937.13;5079031;28;824;-49
2022/05/30 04:03:31;;;;;;;;;;;;;;;27.41;40.90;99925.09;5079264;28;798;-66
2022/05/30 04:05:56;;;;;;;;;;;;;;;27.55;40.92;99923.25;5078694;28;812;-66
2022/05/30 04:08:21;;;;;;;;;;;;;;;27.56;40.91;99933.00;5079278;28;808;-62
2022/05/30 04:10:47;;;;;;;;;;;;;;;27.70;40.75;99939.31;5079032;28;910;-63
2022/05/30 04:13:12;;;;;;;;;;;;;;;27.79;40.77;99936.41;5078804;28;1902;-63
2022/05/30 04:15:37;;;;;;;;;;;;;;;27.75;40.34;99931.41;5078771;28;962;-63
2022/05/30 04:18:03;;;;;;;;;;;;;;;27.84;39.90;99926.59;5078840;28;862;-62
2022/05/30 04:20:29;;;;;;;;;;;;;;;27.82;40.33;99926.00;5079301;28;919;-65
2022/05/30 04:22:54;;;;;;;;;;;;;;;27.81;40.29;99912.69;5078927;28;1087;-65
2022/05/30 04:25:19;;;;;;;;;;;;;;;27.85;40.44;99914.78;5078685;28;801;-63
2022/05/30 04:27:45;;;;;;;;;;;;;;;27.87;40.43;99920.81;5078413;28;1218;-65
2022/05/30 04:30:10;;;;;;;;;;;;;;;27.87;40.70;99904.59;5077181;28;852;-65
2022/05/30 04:32:36;;;;;;;;;;;;;;;27.91;40.48;99912.28;5078735;28;793;-63
2022/05/30 04:35:02;;;;;;;;;;;;;;;27.94;40.82;99909.16;5078200;28;1978;-64
2022/05/30 04:37:27;;;;;;;;;;;;;;;27.91;40.75;99910.38;5078633;28;839;-64
2022/05/30 04:39:53;;;;;;;;;;;;;;;27.94;40.77;99906.47;5078473;28;925;-64
2022/05/30 04:42:18;;;;;;;;;;;;;;;27.96;40.74;99916.00;5078511;28;1500;-65
2022/05/30 04:44:43;;;;;;;;;;;;;;;27.91;41.41;99917.69;5077825;28;784;-66
2022/05/30 04:47:11;;;;;;;;;;;;;;;27.99;41.49;99917.47;5078114;28;1100;-59
2022/05/30 04:49:36;;;;;;;;;;;;;;;27.98;41.67;99923.91;5078223;28;1147;-64
2022/05/30 04:52:01;;;;;;;;;;;;;;;28.03;41.50;99931.41;5078288;28;931;-64
2022/05/30 04:54:27;;;;;;;;;;;;;;;28.01;41.27;99928.88;5078255;28;1890;-66
2022/05/30 04:56:53;;;;;;;;;;;;;;;28.04;42.31;99933.91;5075950;28;1177;-66
2022/05/30 04:59:18;;;;;;;;;;;;;;;28.08;42.36;99937.84;5077910;28;1057;-61
2022/05/30 05:01:44;;;;;;;;;;;;;;;28.16;42.32;99952.19;5078008;28;911;-63
2022/05/30 05:04:11;;;;;;;;;;;;;;;28.19;42.07;99949.91;5077385;28;841;-62
2022/05/30 05:06:37;;;;;;;;;;;;;;;28.21;41.90;99952.41;5077897;28;781;-63
2022/05/30 05:09:04;;;;;;;;;;;;;;;28.24;42.02;99957.38;5077293;28;908;-63
2022/05/30 05:11:31;;;;;;;;;;;;;;;28.28;42.15;99961.31;5077360;28;1528;-61
2022/05/30 05:13:56;;;;;;;;;;;;;;;28.29;42.08;99957.59;5077345;28;1890;-60
2022/05/30 05:16:23;;;;;;;;;;;;;;;28.31;41.60;99954.66;5077490;28;1243;-63
2022/05/30 05:18:48;;;;;;;;;;;;;;;27.70;43.39;99962.78;5077814;28;1207;-57
2022/05/30 05:21:17;;;;;;;;;;;;;;;27.58;44.43;99959.81;5077030;28;1012;-55
2022/05/30 05:23:42;;;;;;;;;;;;;;;27.36;45.74;99960.00;5077630;28;858;-47
2022/05/30 05:26:07;;;;;;;;;;;;;;;27.19;45.87;99964.94;5077661;28;1091;-54
2022/05/30 05:28:33;;;;;;;;;;;;;;;27.81;45.21;99972.97;5077726;28;992;-51
2022/05/30 05:30:58;;;;;;;;;;;;;;;28.22;43.71;99992.75;5077470;28;887;-59
2022/05/30 05:33:23;;;;;;;;;;;;;;;28.03;42.53;99997.09;5077077;28;1906;-46
2022/05/30 05:35:49;;;;;;;;;;;;;;;28.03;42.08;99999.81;5076875;28;875;-39
2022/05/30 05:38:14;;;;;;;;;;;;;;;28.31;41.93;100006.06;5076801;28;1134;-42
2022/05/30 05:40:40;;;;;;;;;;;;;;;28.06;43.00;100018.31;5059389;28;840;-36
2022/05/30 05:43:05;;;;;;;;;;;;;;;27.70;44.73;100017.66;5077268;28;769;-39
2022/05/30 05:45:33;;;;;;;;;;;;;;;27.71;44.80;100016.59;5077260;28;793;-38
2022/05/30 05:47:58;;;;;;;;;;;;;;;27.73;44.79;100019.09;5076776;28;925;-44
2022/05/30 05:50:23;;;;;;;;;;;;;;;27.78;43.94;100035.53;5077277;28;842;-42
2022/05/30 05:52:48;;;;;;;;;;;;;;;27.57;44.71;100033.81;5077274;28;813;-43
2022/05/30 05:55:14;;;;;;;;;;;;;;;27.60;45.36;100033.41;5077055;28;1910;-45
2022/05/30 05:57:39;;;;;;;;;;;;;;;28.28;43.41;100026.22;5076503;28;822;-47
2022/05/30 06:00:05;;;;;;;;;;;;;;;28.48;42.50;100031.66;5076800;28;929;-47
2022/05/30 06:02:32;;;;;;;;;;;;;;;28.55;41.89;100028.09;5076661;28;773;-46
2022/05/30 06:04:57;;;;;;;;;;;;;;;26.63;42.66;100021.50;5076191;28;1143;-45
2022/05/30 06:07:23;;;;;;;;;;;;;;;21.19;49.55;100019.97;5076952;28;840;-46
2022/05/30 06:09:48;;;;;;;;;;;;;;;18.74;49.56;100018.00;5076366;28;810;-45
2022/05/30 06:12:15;;;;;;;;;;;;;;;18.51;52.79;100022.81;5076186;28;825;-44
2022/05/30 06:14:40;;;;;;;;;;;;;;;18.30;54.17;100021.97;5076718;28;1905;-45
2022/05/30 06:17:05;;;;;;;;;;;;;;;18.47;55.64;100014.25;5076118;28;982;-44
2022/05/30 06:19:30;;;;;;;;;;;;;;;18.54;56.60;100018.03;5076695;28;932;-44
2022/05/30 06:21:56;;;;;;;;;;;;;;;18.55;56.99;100027.69;5076717;28;883;-44
2022/05/30 06:24:21;;;;;;;;;;;;;;;19.26;55.85;100030.03;5076283;28;823;-40
2022/05/30 06:26:46;;;;;;;;;;;;;;;19.20;56.38;100028.78;5075885;28;1330;-40
2022/05/30 06:29:12;;;;;;;;;;;;;;;21.90;50.15;100043.78;5076295;28;905;-42
2022/05/30 06:31:38;;;;;;;;;;;;;;;23.72;47.83;100046.28;5075985;28;891;-43
2022/05/30 06:34:03;;;;;;;;;;;;;;;20.66;50.84;100049.41;5076131;28;1943;-43
2022/05/30 06:36:28;;;;;;;;;;;;;;;20.06;52.11;100044.59;5076100;28;1076;-40
2022/05/30 06:38:54;;;;;;;;;;;;;;;18.92;54.65;100044.72;5075757;28;957;-42
2022/05/30 06:41:21;;;;;;;;;;;;;;;19.30;54.79;100051.91;5076243;28;737;-42
2022/05/30 06:43:46;;;;;;;;;;;;;;;18.98;54.96;100053.97;5076406;28;1055;-43
2022/05/30 06:46:12;;;;;;;;;;;;;;;19.13;52.95;100064.19;5075988;28;794;-40
2022/05/30 06:48:37;;;;;;;;;;;;;;;19.04;53.03;100063.19;5075224;28;1202;-41
2022/05/30 06:51:06;;;;;;;;;;;;;;;19.17;52.35;100065.56;5075360;28;1249;-52
2022/05/30 06:53:32;;;;;;;;;;;;;;;22.08;47.49;100074.94;5076016;28;1901;-48
2022/05/30 06:55:57;;;;;;;;;;;;;;;21.46;44.95;100071.56;5075789;28;1096;-44
2022/05/30 06:58:22;;;;;;;;;;;;;;;19.11;50.02;100085.66;5074678;28;1284;-44
2022/05/30 07:00:48;;;;;;;;;;;;;;;18.93;50.71;100085.56;5074558;28;1159;-42
2022/05/30 07:03:13;;;;;;;;;;;;;;;18.78;51.22;100083.34;5075729;28;809;-41
2022/05/30 07:05:39;;;;;;;;;;;;;;;19.17;50.38;100086.88;5076165;28;766;-42
2022/05/30 07:08:05;;;;;;;;;;;;;;;20.35;52.48;100088.09;5076063;28;860;-40
2022/05/30 07:10:30;;;;;;;;;;;;;;;22.98;43.50;100093.03;5075576;28;1104;-40
2022/05/30 07:12:57;;;;;;;;;;;;;;;21.97;43.93;100096.69;5075780;28;1068;-40
2022/05/30 07:15:22;;;;;;;;;;;;;;;20.23;48.46;100103.50;5075397;28;1898;-40
2022/05/30 07:17:47;;;;;;;;;;;;;;;19.61;49.98;100099.63;5075851;28;782;-41
2022/05/30 07:20:14;;;;;;;;;;;;;;;19.18;51.27;100096.59;5075655;28;900;-40
2022/05/30 07:22:39;;;;;;;;;;;;;;;19.14;51.38;100103.19;5075704;28;1413;-40
2022/05/30 07:25:05;;;;;;;;;;;;;;;19.49;55.25;100101.66;5076223;28;790;-41
2022/05/30 07:27:30;;;;;;;;;;;;;;;22.46;45.25;100100.41;5076934;28;1223;-42
2022/05/30 07:29:55;;;;;;;;;;;;;;;24.03;42.35;100103.69;5079593;28;848;-44
2022/05/30 07:32:20;;;;;;;;;;;;;;;24.67;39.02;100114.31;5078975;28;998;-44
2022/05/30 07:34:46;;;;;;;;;;;;;;;24.89;39.25;100115.28;5079745;28;1906;-44
2022/05/30 07:37:11;;;;;;;;;;;;;;;25.13;42.44;100121.47;5079240;28;1219;-43
2022/05/30 07:39:37;;;;;;;;;;;;;;;25.29;37.72;100115.06;5079357;28;1304;-45
2022/05/30 07:42:02;;;;;;;;;;;;;;;25.51;38.91;100117.81;5078903;28;1281;-45
2022/05/30 07:44:28;;;;;;;;;;;;;;;21.72;44.83;100109.97;5058084;28;1215;-43
2022/05/30 07:46:53;;;;;;;;;;;;;;;20.50;47.98;100120.41;5079218;28;1242;-43
2022/05/30 07:49:18;;;;;;;;;;;;;;;20.01;48.85;100110.06;5079192;28;1286;-42
2022/05/30 07:51:44;;;;;;;;;;;;;;;19.86;49.11;100126.59;5079234;28;1298;-43
2022/05/30 07:54:09;;;;;;;;;;;;;;;19.62;49.92;100119.97;5078440;28;1937;-42
2022/05/30 07:56:34;;;;;;;;;;;;;;;19.54;50.23;100123.41;5078155;28;1203;-42
2022/05/30 07:59:00;;;;;;;;;;;;;;;21.95;46.62;100125.47;5078746;28;1436;-43
2022/05/30 08:01:26;;;;;;;;;;;;;;;23.73;44.45;100120.47;5078092;28;1115;-41
2022/05/30 08:03:51;;;;;;;;;;;;;;;24.66;39.07;100129.63;5078649;28;1266;-42
2022/05/30 08:06:20;;;;;;;;;;;;;;;24.97;40.44;100135.94;5078416;28;1199;-42
2022/05/30 08:08:46;;;;;;;;;;;;;;;21.31;44.93;100124.00;5078447;28;810;-42
2022/05/30 08:11:11;;;;;;;;;;;;;;;20.22;48.54;100128.50;5078426;28;976;-43
2022/05/30 08:13:37;;;;;;;;;;;;;;;19.67;49.84;100119.53;5078609;28;1902;-42
2022/05/30 08:16:02;;;;;;;;;;;;;;;19.34;50.95;100122.63;5078569;28;1294;-41
2022/05/30 08:18:28;;;;;;;;;;;;;;;19.19;51.60;100127.59;5079517;28;793;-43
2022/05/30 08:20:53;;;;;;;;;;;;;;;19.21;51.37;100128.28;5078973;28;801;-42
2022/05/30 08:23:18;;;;;;;;;;;;;;;21.30;48.81;100128.53;5078707;28;737;-41
2022/05/30 08:25:45;;;;;;;;;;;;;;;23.53;43.09;100127.25;5078248;28;1239;-41
2022/05/30 08:28:11;;;;;;;;;;;;;;;24.29;40.59;100129.41;5079375;28;821;-41
2022/05/30 08:30:36;;;;;;;;;;;;;;;24.73;42.39;100131.56;5078005;28;1099;-41
2022/05/30 08:33:01;;;;;;;;;;;;;;;25.02;38.65;100133.53;5078251;28;821;-41
2022/05/30 08:35:26;;;;;;;;;;;;;;;23.21;41.10;100113.75;5078929;28;1957;-44
2022/05/30 08:37:55;;;;;;;;;;;;;;;20.54;47.94;100132.50;5078634;28;847;-41
2022/05/30 08:43:10;;;;;;;;;;;;;;;19.53;50.19;100127.06;5078324;28;719;-41
2022/05/30 08:45:36;;;;;;;;;;;;;;;22.17;45.25;100134.72;5060005;28;879;-41
2022/05/30 08:48:01;;;;;;;;;;;;;;;21.24;45.52;100137.16;5060396;28;841;-44
2022/05/30 08:51:02;;;;;;;;;;;;;;;19.89;49.06;100136.13;5060213;28;887;-42
2022/05/30 08:53:29;;;;;;;;;;;;;;;19.44;50.59;100128.78;4972071;28;1894;-42
2022/05/30 08:56:14;;;;;;;;;;;;;;;20.15;54.39;100132.78;5058040;28;852;-41
2022/05/30 08:58:58;;;;;;;;;;;;;;;22.99;42.97;100134.91;5077296;28;1435;-41
2022/05/30 09:01:31;;;;;;;;;;;;;;;20.07;48.69;100138.88;5076909;28;1164;-41
2022/05/30 09:04:09;;;;;;;;;;;;;;;19.44;50.75;100130.59;5059779;28;1431;-40
2022/05/30 09:06:43;;;;;;;;;;;;;;;19.11;51.47;100138.13;5059067;28;1176;-40
2022/05/30 09:09:20;;;;;;;;;;;;;;;21.08;49.39;100138.78;5057454;28;1342;-41
2022/05/30 09:11:47;;;;;;;;;;;;;;;21.29;45.33;100134.88;5076562;28;1515;-43
2022/05/30 09:14:14;;;;;;;;;;;;;;;19.79;49.98;100142.38;5059007;28;1902;-41
2022/05/30 09:16:41;;;;;;;;;;;;;;;19.27;51.16;100150.88;5059589;28;964;-42
2022/05/30 09:19:07;;;;;;;;;;;;;;;21.35;48.80;100154.81;5059842;28;844;-40
2022/05/30 09:21:33;;;;;;;;;;;;;;;21.71;44.32;100164.50;5077307;28;846;-41
2022/05/30 09:23:59;;;;;;;;;;;;;;;19.88;51.62;100154.00;5077026;28;796;-42
2022/05/30 09:26:25;;;;;;;;;;;;;;;19.57;53.76;100171.13;5077357;28;1111;-43
2022/05/30 09:28:51;;;;;;;;;;;;;;;19.45;55.12;100158.97;5077537;28;750;-39
2022/05/30 09:31:35;;;;;;;;;;;;;;;19.48;56.86;100166.69;5076915;28;895;-39
2022/05/30 09:34:02;;;;;;;;;;;;;;;20.35;62.57;100167.38;5077117;28;1969;-39
2022/05/30 09:36:28;;;;;;;;;;;;;;;22.90;50.98;100162.78;5058667;28;1421;-37
2022/05/30 09:38:57;;;;;;;;;;;;;;;20.74;52.88;100168.88;5077328;28;1339;-40
2022/05/30 09:41:37;;;;;;;;;;;;;;;19.62;55.89;100172.53;5077446;28;1009;-40
2022/05/30 09:44:03;;;;;;;;;;;;;;;19.60;56.41;100166.50;5076512;28;1150;-40
2022/05/30 09:46:47;;;;;;;;;;;;;;;19.52;56.47;100180.56;5076546;28;1120;-39
2022/05/30 09:49:33;;;;;;;;;;;;;;;19.47;56.36;100178.31;5071680;28;1061;-40
2022/05/30 09:52:04;;;;;;;;;;;;;;;19.37;56.33;100188.19;5058940;28;1511;-39
2022/05/30 09:54:29;;;;;;;;;;;;;;;19.30;56.03;100179.94;5077001;28;1899;-40
2022/05/30 09:57:10;;;;;;;;;;;;;;;19.58;58.26;100191.47;5076613;28;981;-41
2022/05/30 09:59:42;;;;;;;;;;;;;;;22.43;46.53;100182.00;5076880;28;826;-41
2022/05/30 10:02:17;;;;;;;;;;;;;;;20.31;50.69;100193.53;5073374;28;975;-41
2022/05/30 10:04:42;;;;;;;;;;;;;;;19.39;54.04;100194.19;5075093;28;1279;-41
2022/05/30 10:07:10;;;;;;;;;;;;;;;18.79;54.12;100191.59;5058164;28;950;-40
2022/05/30 10:09:39;;;;;;;;;;;;;;;18.79;53.91;100188.09;5075071;28;1227;-40
2022/05/30 10:12:04;;;;;;;;;;;;;;;18.87;53.76;100195.41;5076318;28;1266;-41
2022/05/30 10:14:32;;;;;;;;;;;;;;;19.51;57.43;100192.22;5075885;28;1898;-41
2022/05/30 10:16:58;;;;;;;;;;;;;;;22.34;46.23;100188.31;5072929;28;1069;-41
2022/05/30 10:19:25;;;;;;;;;;;;;;;19.92;49.14;100192.75;5076478;28;1207;-39
2022/05/30 10:30:39;;;;;;;;;;;;;;;18.68;53.58;100189.94;5052573;28;1225;-39
2022/05/30 10:33:08;;;;;;;;;;;;;;;18.72;53.82;100195.78;5058243;28;1378;-39
2022/05/30 10:35:45;;;;;;;;;;;;;;;20.21;54.55;100203.44;5076031;28;1905;-39
2022/05/30 10:38:17;;;;;;;;;;;;;;;22.42;46.13;100198.25;5058140;28;1129;-41
2022/05/30 10:40:42;;;;;;;;;;;;;;;19.30;51.08;100202.09;5076045;28;914;-42
2022/05/30 10:43:12;;;;;;;;;;;;;;;18.66;52.98;100193.69;5075789;28;1253;-41
2022/05/30 10:45:40;;;;;;;;;;;;;;;18.71;53.37;100199.44;5057719;28;1208;-43
2022/05/30 10:48:06;;;;;;;;;;;;;;;18.68;53.53;100205.06;5076047;28;1266;-39
2022/05/30 10:50:46;;;;;;;;;;;;;;;18.59;53.83;100196.94;5058089;28;853;-42
2022/05/30 10:53:18;;;;;;;;;;;;;;;18.59;53.98;100196.06;5054622;28;850;-40
2022/05/30 10:55:44;;;;;;;;;;;;;;;18.89;58.33;100202.25;5076095;28;901;-41
2022/05/30 10:58:25;;;;;;;;;;;;;;;21.93;47.39;100202.44;5057915;28;1424;-40
2022/05/30 11:00:51;;;;;;;;;;;;;;;20.49;48.07;100193.56;5075543;28;856;-45
2022/05/30 11:03:29;;;;;;;;;;;;;;;19.08;51.29;100197.91;5056965;28;1566;-40
2022/05/30 11:06:08;;;;;;;;;;;;;;;18.60;53.49;100198.59;5075405;28;825;-39
2022/05/30 11:08:41;;;;;;;;;;;;;;;18.60;53.59;100195.94;5051557;28;735;-40
2022/05/30 11:11:14;;;;;;;;;;;;;;;18.56;54.33;100199.03;5057977;28;790;-41
2022/05/30 11:13:43;;;;;;;;;;;;;;;18.64;54.46;100188.50;5058022;28;1941;-42
2022/05/30 11:16:11;;;;;;;;;;;;;;;18.77;54.30;100193.56;5057356;28;848;-41
2022/05/30 11:18:37;;;;;;;;;;;;;;;20.43;53.52;100205.72;5057109;28;786;-39
2022/05/30 11:21:11;;;;;;;;;;;;;;;22.53;46.76;100205.13;5075556;28;853;-41
2022/05/30 11:23:36;;;;;;;;;;;;;;;19.45;50.90;100202.47;5057912;28;793;-41
2022/05/30 11:26:17;;;;;;;;;;;;;;;18.70;52.66;100189.78;5074994;28;1211;-40
2022/05/30 11:29:15;;;;;;;;;;;;;;;18.75;52.83;100192.03;5057408;28;1262;-39
2022/05/30 11:31:45;;;;;;;;;;;;;;;18.72;53.17;100193.13;5029766;28;1359;-43
2022/05/30 11:34:19;;;;;;;;;;;;;;;18.68;53.08;100189.94;5057195;28;1910;-41
2022/05/30 11:37:05;;;;;;;;;;;;;;;18.72;53.48;100201.13;5055333;28;1267;-42
2022/05/30 11:39:37;;;;;;;;;;;;;;;19.88;56.49;100209.22;5031203;28;1249;-40
2022/05/30 11:42:10;;;;;;;;;;;;;;;22.70;45.03;100214.06;5075415;28;1029;-41
2022/05/30 11:44:42;;;;;;;;;;;;;;;19.58;50.50;100212.00;5056707;28;1100;-40
2022/05/30 11:47:13;;;;;;;;;;;;;;;18.88;52.03;100205.91;5056283;28;1248;-40
2022/05/30 11:49:39;;;;;;;;;;;;;;;18.90;52.56;100198.59;5074786;28;1302;-41
2022/05/30 11:52:18;;;;;;;;;;;;;;;18.93;52.63;100205.47;5056739;28;1271;-41
2022/05/30 11:55:02;;;;;;;;;;;;;;;18.91;52.81;100204.78;5054998;28;1976;-39
2022/05/30 11:57:46;;;;;;;;;;;;;;;18.95;53.02;100217.69;5074644;28;1213;-40
2022/05/30 12:00:13;;;;;;;;;;;;;;;20.17;53.42;100218.91;5074356;28;1387;-40
2022/05/30 12:02:42;;;;;;;;;;;;;;;22.78;44.58;100223.94;5074999;28;1142;-39
2022/05/30 12:05:21;;;;;;;;;;;;;;;20.08;49.19;100219.81;5074807;28;1123;-40
2022/05/30 12:08:07;;;;;;;;;;;;;;;18.76;51.48;100220.34;5055086;28;1212;-40
2022/05/30 12:10:33;;;;;;;;;;;;;;;18.73;52.38;100222.31;5073739;28;1176;-41
2022/05/30 12:13:04;;;;;;;;;;;;;;;18.73;52.68;100224.97;5075210;28;1263;-40
2022/05/30 12:15:51;;;;;;;;;;;;;;;18.64;52.98;100228.47;5078425;28;1925;-41
2022/05/30 12:24:18;;;;;;;;;;;;;;;24.40;40.90;100235.69;5074189;28;600;-39
2022/05/30 12:26:47;;;;;;;;;;;;;;;24.75;40.39;100235.28;5078487;28;1240;-39
2022/05/30 12:29:32;;;;;;;;;;;;;;;24.80;40.74;100235.59;5078707;28;853;-37
2022/05/30 12:32:09;;;;;;;;;;;;;;;25.03;39.95;100242.84;5078444;28;895;-40
2022/05/30 12:34:54;;;;;;;;;;;;;;;25.18;39.65;100240.19;5077524;28;1906;-37
2022/05/30 12:37:41;;;;;;;;;;;;;;;25.41;40.06;100241.13;5078567;28;865;-41
2022/05/30 12:40:10;;;;;;;;;;;;;;;25.65;39.83;100245.47;5077779;28;1264;-41
2022/05/30 12:42:39;;;;;;;;;;;;;;;25.66;38.68;100243.59;5077999;28;1462;-42
2022/05/30 12:45:23;;;;;;;;;;;;;;;25.63;39.96;100246.66;5060909;28;1330;-46
2022/05/30 12:47:49;;;;;;;;;;;;;;;25.93;38.80;100243.97;5076393;28;1160;-38
2022/05/30 12:50:25;;;;;;;;;;;;;;;25.93;38.15;100243.97;5053040;28;845;-38
2022/05/30 12:52:54;;;;;;;;;;;;;;;26.12;39.01;100247.09;5078027;28;845;-40
2022/05/30 12:55:31;;;;;;;;;;;;;;;26.14;37.44;100250.47;5078071;28;1901;-39
2022/05/30 12:57:56;;;;;;;;;;;;;;;26.43;37.56;100251.44;5077938;28;817;-41
2022/05/30 13:00:21;;;;;;;;;;;;;;;26.23;38.96;100256.56;5059591;28;890;-43
2022/05/30 13:02:50;;;;;;;;;;;;;;;26.24;37.32;100260.94;5078523;28;905;-40
2022/05/30 13:05:16;;;;;;;;;;;;;;;26.35;37.83;100246.16;5078021;28;901;-42
2022/05/30 13:07:41;;;;;;;;;;;;;;;26.61;36.52;100237.50;5077768;28;1373;-48
2022/05/30 13:10:06;;;;;;;;;;;;;;;24.12;41.98;100248.72;5077974;28;1239;-45
2022/05/30 13:12:57;;;;;;;;;;;;;;;21.83;48.00;100248.09;5059649;28;1114;-40
2022/05/30 13:15:22;;;;;;;;;;;;;;;23.17;48.28;100244.72;5076939;28;1977;-40
2022/05/30 13:17:57;;;;;;;;;;;;;;;25.02;41.73;100251.09;5077550;28;826;-42
2022/05/30 13:20:29;;;;;;;;;;;;;;;21.67;48.19;100246.16;5077768;28;828;-40
2022/05/30 13:22:55;;;;;;;;;;;;;;;23.22;47.80;100242.38;5077961;28;832;-41
2022/05/30 13:25:21;;;;;;;;;;;;;;;25.00;41.81;100250.41;5058641;28;821;-38
2022/05/30 13:27:46;;;;;;;;;;;;;;;21.49;48.48;100255.91;5077088;28;1177;-43